createdAt,value
2019-02-21T00:02:19.472Z,2.10
2019-02-21T00:04:47.896Z,2.10
2019-02-21T00:07:16.309Z,1.90
2019-02-21T00:09:44.749Z,1.80
2019-02-21T00:12:13.160Z,1.70
2019-02-21T00:14:41.630Z,1.70
2019-02-21T00:17:10.091Z,1.60
2019-02-21T00:19:57.848Z,1.50
2019-02-21T00:22:26.265Z,1.50
2019-02-21T00:24:54.937Z,1.60
2019-02-21T00:27:23.352Z,1.60
2019-02-21T00:29:51.827Z,1.70
2019-02-21T00:32:20.247Z,1.60
2019-02-21T00:34:48.668Z,1.60
2019-02-21T00:37:17.088Z,1.60
2019-02-21T00:39:45.518Z,1.70
2019-02-21T00:42:13.932Z,1.70
2019-02-21T00:44:42.353Z,1.80
2019-02-21T00:47:10.768Z,1.80
2019-02-21T00:49:39.480Z,1.80
2019-02-21T00:52:07.885Z,1.70
2019-02-21T00:54:36.313Z,1.80
2019-02-21T00:57:04.736Z,1.80
2019-02-21T00:59:33.161Z,1.80
2019-02-21T01:02:01.574Z,1.80
2019-02-21T01:04:30.029Z,1.80
2019-02-21T01:06:58.483Z,1.80
2019-02-21T01:09:27.184Z,1.80
2019-02-21T01:11:55.604Z,1.80
2019-02-21T01:14:24.033Z,1.70
2019-02-21T01:16:52.444Z,1.70
2019-02-21T01:21:49.236Z,1.70
2019-02-21T01:29:13.913Z,1.70
2019-02-21T01:31:42.340Z,1.60
2019-02-21T01:34:10.760Z,1.70
2019-02-21T01:36:39.185Z,1.60
2019-02-21T01:39:28.465Z,1.50
2019-02-21T01:41:56.934Z,1.50
2019-02-21T01:59:13.934Z,1.30
2019-02-21T02:01:42.380Z,1.30
2019-02-21T02:04:10.872Z,1.20
2019-02-21T02:06:39.295Z,1.30
2019-02-21T02:09:09.618Z,1.30
2019-02-21T02:11:38.037Z,1.20
2019-02-21T02:19:02.952Z,1.20
2019-02-21T02:31:23.960Z,1.20
2019-02-21T02:33:52.460Z,1.20
2019-02-21T02:36:20.881Z,1.20
2019-02-21T02:38:49.303Z,1.20
2019-02-21T02:41:17.735Z,1.30
2019-02-21T02:43:46.181Z,1.30
2019-02-21T02:46:14.945Z,1.20
2019-02-21T02:58:35.759Z,1.20
2019-02-21T03:01:04.186Z,1.20
2019-02-21T03:03:32.597Z,1.20
2019-02-21T03:06:01.362Z,1.20
2019-02-21T03:08:29.782Z,1.20
2019-02-21T03:10:58.219Z,1.10
2019-02-21T03:13:26.636Z,1.00
2019-02-21T03:23:19.713Z,0.90
2019-02-21T03:30:44.922Z,0.90
2019-02-21T03:33:13.481Z,1.00
2019-02-21T03:35:42.055Z,0.90
2019-02-21T03:38:10.565Z,0.90
2019-02-21T03:40:39.127Z,0.90
2019-02-21T03:43:07.609Z,0.90
2019-02-21T03:45:36.028Z,0.90
2019-02-21T03:50:32.943Z,1.00
2019-02-21T04:00:26.005Z,0.90
2019-02-21T04:07:50.709Z,1.00
2019-02-21T04:10:19.165Z,0.90
2019-02-21T04:12:47.596Z,0.90
2019-02-21T04:15:16.072Z,0.80
2019-02-21T04:17:44.496Z,0.80
2019-02-21T04:20:12.932Z,0.80
2019-02-21T04:22:41.340Z,0.90
2019-02-21T04:35:02.836Z,0.80
2019-02-21T04:37:31.257Z,0.70
2019-02-21T04:42:27.779Z,0.70
2019-02-21T04:47:24.594Z,0.70
2019-02-21T04:49:53.005Z,0.70
2019-02-21T04:57:17.679Z,0.60
2019-02-21T04:59:46.089Z,0.70
2019-02-21T05:07:10.729Z,0.60
2019-02-21T05:12:07.264Z,0.60
2019-02-21T05:14:35.674Z,0.60
2019-02-21T05:17:04.124Z,0.50
2019-02-21T05:19:32.543Z,0.50
2019-02-21T05:22:00.966Z,0.40
2019-02-21T05:24:29.394Z,0.40
2019-02-21T05:32:13.549Z,0.40
2019-02-21T05:34:52.566Z,0.40
2019-02-21T05:37:31.799Z,0.40
2019-02-21T05:40:18.357Z,0.50
2019-02-21T05:42:51.141Z,0.50
2019-02-21T05:45:37.631Z,0.50
2019-02-21T05:48:07.761Z,0.60
2019-02-21T05:56:04.082Z,0.50
2019-02-21T05:58:34.238Z,0.50
2019-02-21T06:01:04.281Z,0.50
2019-02-21T06:03:49.097Z,0.40
2019-02-21T06:06:25.242Z,0.40
2019-02-21T06:09:01.104Z,0.50
2019-02-21T06:11:31.163Z,0.50
2019-02-21T06:14:01.233Z,0.50
2019-02-21T06:16:33.987Z,0.50
2019-02-21T06:19:04.046Z,0.60
2019-02-21T06:24:06.808Z,0.60
2019-02-21T06:31:34.688Z,0.50
2019-02-21T06:34:03.159Z,0.50
2019-02-21T06:36:31.570Z,0.60
2019-02-21T06:39:00.001Z,0.60
2019-02-21T06:41:29.889Z,0.60
2019-02-21T06:43:58.568Z,0.60
2019-02-21T06:48:55.077Z,0.60
2019-02-21T06:51:23.800Z,0.60
2019-02-21T06:53:53.176Z,0.60
2019-02-21T07:01:26.626Z,0.60
2019-02-21T07:06:19.008Z,0.70
2019-02-21T07:08:46.692Z,0.80
2019-02-21T07:11:15.177Z,0.90
2019-02-21T07:16:13.071Z,1.00
2019-02-21T07:26:08.190Z,1.40
2019-02-21T07:31:04.762Z,1.60
2019-02-21T07:33:33.185Z,1.70
2019-02-21T07:36:01.664Z,1.80
2019-02-21T07:38:30.382Z,2.00
2019-02-21T07:50:51.289Z,1.90
2019-02-21T08:00:44.554Z,1.90
2019-02-21T08:03:13.057Z,2.00
2019-02-21T08:05:41.493Z,2.10
2019-02-21T08:08:09.909Z,2.10
2019-02-21T08:10:38.339Z,2.20
2019-02-21T08:13:06.753Z,2.30
2019-02-21T08:20:35.536Z,2.60
2019-02-21T08:25:31.746Z,2.80
2019-02-21T08:30:29.289Z,3.00
2019-02-21T08:35:54.024Z,3.20
2019-02-21T08:38:23.003Z,3.30
2019-02-21T08:40:53.297Z,3.40
2019-02-21T08:43:21.643Z,3.50
2019-02-21T08:45:50.069Z,3.60
2019-02-21T08:48:18.489Z,3.70
2019-02-21T08:50:46.925Z,3.80
2019-02-21T08:53:15.350Z,3.90
2019-02-21T09:00:40.289Z,4.20
2019-02-21T09:03:08.794Z,4.40
2019-02-21T09:05:37.230Z,4.50
2019-02-21T09:08:05.713Z,4.60
2019-02-21T09:13:02.310Z,5.00
2019-02-21T09:15:30.725Z,5.20
2019-02-21T09:17:59.145Z,5.50
2019-02-21T09:20:27.596Z,5.70
2019-02-21T09:22:56.087Z,5.90
2019-02-21T09:27:52.691Z,6.30
2019-02-21T09:30:21.122Z,6.30
2019-02-21T09:32:49.942Z,6.70
2019-02-21T09:35:18.691Z,6.70
2019-02-21T09:37:47.112Z,6.90
2019-02-21T09:40:15.533Z,7.00
2019-02-21T09:42:43.960Z,7.10
2019-02-21T09:45:20.007Z,7.10
2019-02-21T09:47:48.426Z,7.10
2019-02-21T09:50:16.854Z,7.00
2019-02-21T09:52:45.282Z,7.00
2019-02-21T09:57:45.787Z,7.10
2019-02-21T10:00:18.765Z,7.20
2019-02-21T10:02:47.198Z,7.20
2019-02-21T10:07:43.699Z,7.50
2019-02-21T10:10:14.383Z,7.50
2019-02-21T10:12:42.826Z,7.70
2019-02-21T10:15:13.860Z,7.70
2019-02-21T10:17:42.277Z,7.90
2019-02-21T10:20:13.084Z,8.10
2019-02-21T10:22:41.911Z,8.20
2019-02-21T10:25:18.803Z,8.40
2019-02-21T10:27:47.318Z,8.60
2019-02-21T10:30:18.079Z,8.60
2019-02-21T10:32:46.497Z,8.70
2019-02-21T10:35:14.995Z,8.80
2019-02-21T10:37:43.410Z,8.90
2019-02-21T10:40:13.965Z,9.10
2019-02-21T10:42:42.580Z,9.30
2019-02-21T10:47:40.634Z,9.60
2019-02-21T10:50:16.576Z,9.70
2019-02-21T10:52:45.005Z,9.80
2019-02-21T10:55:14.065Z,9.90
2019-02-21T10:57:45.172Z,10.00
2019-02-21T11:00:18.259Z,10.10
2019-02-21T11:05:14.843Z,10.30
2019-02-21T11:07:43.292Z,10.40
2019-02-21T11:10:14.519Z,10.50
2019-02-21T11:12:42.970Z,10.60
2019-02-21T11:15:13.643Z,10.60
2019-02-21T11:17:42.070Z,10.70
2019-02-21T11:20:13.483Z,10.90
2019-02-21T11:22:42.273Z,10.90
2019-02-21T11:25:11.936Z,11.00
2019-02-21T11:30:11.770Z,11.20
2019-02-21T11:32:40.194Z,11.30
2019-02-21T11:35:08.776Z,11.30
2019-02-21T11:40:09.778Z,11.50
2019-02-21T11:45:12.237Z,11.70
2019-02-21T11:47:40.662Z,11.80
2019-02-21T11:50:12.164Z,11.90
2019-02-21T11:52:40.594Z,12.00
2019-02-21T11:55:11.828Z,12.00
2019-02-21T12:00:11.441Z,12.30
2019-02-21T12:02:39.861Z,12.40
2019-02-21T12:05:17.076Z,12.50
2019-02-21T12:07:44.546Z,12.50
2019-02-21T12:10:13.318Z,12.70
2019-02-21T12:12:41.737Z,12.70
2019-02-21T12:15:12.764Z,12.70
2019-02-21T12:17:42.871Z,12.70
2019-02-21T12:20:16.844Z,12.90
2019-02-21T12:22:45.250Z,13.00
2019-02-21T12:25:18.592Z,13.00
2019-02-21T12:27:47.074Z,13.10
2019-02-21T12:30:17.550Z,13.10
2019-02-21T12:32:46.229Z,13.20
2019-02-21T12:35:14.797Z,13.50
2019-02-21T12:37:43.219Z,13.50
2019-02-21T12:40:14.460Z,13.50
2019-02-21T12:42:42.901Z,13.20
2019-02-21T12:47:49.663Z,12.80
2019-02-21T12:50:11.981Z,12.70
2019-02-21T12:57:57.889Z,12.70
2019-02-21T13:00:26.322Z,12.80
2019-02-21T13:02:54.746Z,12.90
2019-02-21T13:05:23.585Z,13.00
2019-02-21T13:07:52.009Z,12.90
2019-02-21T13:10:24.414Z,12.90
2019-02-21T13:12:52.974Z,12.80
2019-02-21T13:15:21.421Z,12.90
2019-02-21T13:17:51.112Z,13.00
2019-02-21T13:20:19.746Z,13.20
2019-02-21T13:22:48.179Z,13.20
2019-02-21T13:25:18.143Z,13.20
2019-02-21T13:27:46.572Z,13.30
2019-02-21T13:30:18.502Z,13.30
2019-02-21T13:32:46.934Z,13.30
2019-02-21T13:35:15.695Z,13.40
2019-02-21T13:37:44.117Z,13.40
2019-02-21T13:40:16.427Z,13.40
2019-02-21T13:42:44.914Z,13.40
2019-02-21T13:45:17.599Z,13.40
2019-02-21T13:47:45.597Z,13.30
2019-02-21T13:50:18.131Z,13.30
2019-02-21T13:52:46.572Z,13.40
2019-02-21T13:55:15.522Z,13.50
2019-02-21T13:57:43.970Z,13.50
2019-02-21T14:00:20.434Z,13.60
2019-02-21T14:02:48.848Z,13.70
2019-02-21T14:05:17.284Z,13.70
2019-02-21T14:07:45.704Z,13.70
2019-02-21T14:10:14.665Z,13.60
2019-02-21T14:12:43.093Z,13.50
2019-02-21T14:15:28.641Z,13.40
2019-02-21T14:17:57.064Z,13.40
2019-02-21T14:20:25.506Z,13.30
2019-02-21T14:22:54.211Z,13.30
2019-02-21T14:25:22.631Z,13.10
2019-02-21T14:27:51.378Z,13.10
2019-02-21T14:30:21.234Z,12.90
2019-02-21T14:32:49.663Z,12.90
2019-02-21T14:35:18.241Z,12.90
2019-02-21T14:37:46.674Z,12.90
2019-02-21T14:40:16.230Z,13.00
2019-02-21T14:42:44.714Z,13.00
2019-02-21T14:45:20.804Z,13.10
2019-02-21T14:47:49.225Z,13.10
2019-02-21T14:50:18.758Z,13.00
2019-02-21T14:52:47.556Z,12.90
2019-02-21T14:55:17.120Z,12.80
2019-02-21T14:57:45.528Z,12.70
2019-02-21T15:00:19.768Z,12.60
2019-02-21T15:02:48.397Z,12.50
2019-02-21T15:05:17.413Z,12.50
2019-02-21T15:07:45.837Z,12.40
2019-02-21T15:10:15.237Z,12.40
2019-02-21T15:12:43.700Z,12.40
2019-02-21T15:15:30.230Z,12.40
2019-02-21T15:18:07.004Z,12.30
2019-02-21T15:20:36.669Z,12.30
2019-02-21T15:22:58.947Z,12.20
2019-02-21T15:25:27.384Z,12.20
2019-02-21T15:27:55.799Z,12.10
2019-02-21T15:30:25.826Z,12.00
2019-02-21T15:32:54.269Z,12.00
2019-02-21T15:35:22.685Z,11.90
2019-02-21T15:37:51.109Z,11.80
2019-02-21T15:40:19.524Z,11.70
2019-02-21T15:42:47.945Z,11.70
2019-02-21T15:45:26.809Z,11.70
2019-02-21T15:47:55.512Z,11.70
2019-02-21T15:50:23.927Z,11.60
2019-02-21T15:52:54.197Z,11.60
2019-02-21T15:55:23.924Z,11.60
2019-02-21T15:58:03.380Z,11.50
2019-02-21T16:00:24.070Z,11.50
2019-02-21T16:02:52.496Z,11.40
2019-02-21T16:05:20.907Z,11.30
2019-02-21T16:07:49.440Z,11.30
2019-02-21T16:10:28.002Z,11.20
2019-02-21T16:12:56.926Z,11.10
2019-02-21T16:15:25.697Z,11.10
2019-02-21T16:17:54.134Z,10.90
2019-02-21T16:20:22.723Z,10.90
2019-02-21T16:22:51.193Z,10.70
2019-02-21T16:25:24.690Z,10.60
2019-02-21T16:27:55.280Z,10.50
2019-02-21T16:30:23.290Z,10.40
2019-02-21T16:32:51.742Z,10.20
2019-02-21T16:35:20.169Z,10.20
2019-02-21T16:37:48.587Z,10.00
2019-02-21T16:40:18.347Z,9.90
2019-02-21T16:42:46.766Z,9.70
2019-02-21T16:45:19.414Z,9.70
2019-02-21T16:47:47.818Z,9.60
2019-02-21T16:50:16.248Z,9.60
2019-02-21T16:52:44.730Z,9.50
2019-02-21T16:55:21.165Z,9.30
2019-02-21T16:57:49.578Z,9.20
2019-02-21T17:00:24.185Z,9.10
2019-02-21T17:02:52.601Z,9.00
2019-02-21T17:05:21.020Z,8.80
2019-02-21T17:07:49.433Z,8.80
2019-02-21T17:10:18.029Z,8.70
2019-02-21T17:12:59.076Z,8.60
2019-02-21T17:15:27.565Z,8.50
2019-02-21T17:17:55.973Z,8.40
2019-02-21T17:20:25.136Z,8.20
2019-02-21T17:22:53.557Z,8.20
2019-02-21T17:25:21.978Z,8.00
2019-02-21T17:27:50.673Z,8.00
2019-02-21T17:30:39.970Z,7.90
2019-02-21T17:33:08.447Z,7.80
2019-02-21T17:35:36.874Z,7.60
2019-02-21T17:38:05.293Z,7.50
2019-02-21T17:40:33.713Z,7.50
2019-02-21T17:43:02.121Z,7.40
2019-02-21T17:45:30.532Z,7.40
2019-02-21T17:47:58.968Z,7.30
2019-02-21T17:50:27.445Z,7.30
2019-02-21T17:52:55.873Z,7.20
2019-02-21T17:55:24.299Z,7.00
2019-02-21T17:57:52.714Z,6.90
2019-02-21T18:00:24.318Z,6.90
2019-02-21T18:02:52.742Z,6.90
2019-02-21T18:05:21.170Z,6.90
2019-02-21T18:07:49.606Z,6.90
2019-02-21T18:10:18.569Z,6.90
2019-02-21T18:12:47.045Z,6.90
2019-02-21T18:15:16.809Z,6.80
2019-02-21T18:17:45.493Z,6.80
2019-02-21T18:20:15.414Z,6.80
2019-02-21T18:22:43.930Z,6.80
2019-02-21T18:25:27.421Z,6.70
2019-02-21T18:27:55.862Z,6.60
2019-02-21T18:30:24.591Z,6.60
2019-02-21T18:32:53.012Z,6.50
2019-02-21T18:35:21.752Z,6.50
2019-02-21T18:37:50.176Z,6.50
2019-02-21T18:40:21.302Z,6.40
2019-02-21T18:42:49.722Z,6.30
2019-02-21T18:45:18.145Z,6.30
2019-02-21T18:47:46.572Z,6.30
2019-02-21T18:50:15.555Z,6.30
2019-02-21T18:52:44.069Z,6.30
2019-02-21T18:55:12.766Z,6.30
2019-02-21T18:57:41.182Z,6.30
2019-02-21T19:00:22.488Z,6.30
2019-02-21T19:02:50.915Z,6.30
2019-02-21T19:05:19.881Z,6.30
2019-02-21T19:07:58.506Z,6.40
2019-02-21T19:10:19.803Z,6.40
2019-02-21T19:12:48.216Z,6.50
2019-02-21T19:15:18.966Z,6.50
2019-02-21T19:17:47.530Z,6.50
2019-02-21T19:20:17.493Z,6.50
2019-02-21T19:22:45.987Z,6.50
2019-02-21T19:25:14.976Z,6.50
2019-02-21T19:27:43.405Z,6.50
2019-02-21T19:30:20.496Z,6.50
2019-02-21T19:32:49.090Z,6.50
2019-02-21T19:35:17.573Z,6.50
2019-02-21T19:37:46.128Z,6.50
2019-02-21T19:40:15.172Z,6.50
2019-02-21T19:42:44.029Z,6.50
2019-02-21T19:45:13.226Z,6.60
2019-02-21T19:47:41.755Z,6.50
2019-02-21T19:50:10.605Z,6.50
2019-02-21T19:52:39.241Z,6.50
2019-02-21T19:55:09.781Z,6.50
2019-02-21T19:57:38.436Z,6.50
2019-02-21T20:00:10.042Z,6.50
2019-02-21T20:02:38.581Z,6.50
2019-02-21T20:05:07.483Z,6.50
2019-02-21T20:07:36.239Z,6.50
2019-02-21T20:10:06.898Z,6.50
2019-02-21T20:12:35.338Z,6.60
2019-02-21T20:15:05.226Z,6.70
2019-02-21T20:17:33.721Z,6.70
2019-02-21T20:20:02.263Z,6.80
2019-02-21T20:22:30.697Z,6.80
2019-02-21T20:24:59.226Z,6.90
2019-02-21T20:27:27.812Z,6.90
2019-02-21T20:29:56.631Z,6.90
2019-02-21T20:32:25.122Z,7.00
2019-02-21T20:34:53.809Z,7.00
2019-02-21T20:37:22.765Z,7.00
2019-02-21T20:39:51.217Z,7.10
2019-02-21T20:42:19.680Z,7.10
2019-02-21T20:44:48.240Z,7.10
2019-02-21T20:47:16.826Z,7.20
2019-02-21T20:49:45.373Z,7.20
2019-02-21T20:52:13.960Z,7.20
2019-02-21T20:54:42.841Z,7.20
2019-02-21T20:57:11.432Z,7.20
2019-02-21T20:59:39.962Z,7.20
2019-02-21T21:02:08.452Z,7.20
2019-02-21T21:04:36.967Z,7.20
2019-02-21T21:07:05.457Z,7.20
2019-02-21T21:09:34.099Z,7.20
2019-02-21T21:12:02.645Z,7.20
2019-02-21T21:14:31.070Z,7.10
2019-02-21T21:16:59.505Z,7.00
2019-02-21T21:19:27.980Z,6.90
2019-02-21T21:21:56.503Z,6.90
2019-02-21T21:24:25.056Z,6.80
2019-02-21T21:26:53.757Z,6.80
2019-02-21T21:29:22.251Z,6.80
2019-02-21T21:31:50.673Z,6.80
2019-02-21T21:34:19.102Z,6.80
2019-02-21T21:36:47.783Z,6.80
2019-02-21T21:39:16.201Z,6.70
2019-02-21T21:41:44.623Z,6.80
2019-02-21T21:44:13.049Z,6.80
2019-02-21T21:46:41.522Z,6.80
2019-02-21T21:49:09.970Z,6.90
2019-02-21T21:51:38.387Z,6.90
2019-02-21T21:54:06.822Z,7.00
2019-02-21T21:56:35.534Z,7.00
2019-02-21T21:59:03.966Z,7.00
2019-02-21T22:01:32.378Z,7.00
2019-02-21T22:04:00.794Z,7.00
2019-02-21T22:06:29.214Z,6.90
2019-02-21T22:09:04.424Z,6.90
2019-02-21T22:11:27.808Z,6.90
2019-02-21T22:13:56.245Z,7.00
2019-02-21T22:16:24.661Z,6.90
2019-02-21T22:18:53.086Z,6.90
2019-02-21T22:21:21.492Z,6.90
2019-02-21T22:23:49.922Z,7.00
2019-02-21T22:26:18.338Z,7.00
2019-02-21T22:28:46.757Z,7.10
2019-02-21T22:31:15.181Z,7.00
2019-02-21T22:33:43.603Z,6.90
2019-02-21T22:36:12.039Z,6.90
2019-02-21T22:38:41.173Z,6.90
2019-02-21T22:41:09.609Z,7.00
2019-02-21T22:43:38.033Z,7.00
2019-02-21T22:46:06.446Z,7.00
2019-02-21T22:48:34.885Z,7.10
2019-02-21T22:51:03.289Z,7.10
2019-02-21T22:53:31.720Z,7.20
2019-02-21T22:56:00.135Z,7.20
2019-02-21T22:58:28.899Z,7.20
2019-02-21T23:01:00.883Z,7.20
2019-02-21T23:03:44.557Z,7.20
2019-02-21T23:06:40.268Z,7.30
2019-02-21T23:09:10.405Z,7.30
2019-02-21T23:11:38.828Z,7.30
2019-02-21T23:14:07.320Z,7.30
2019-02-21T23:16:35.729Z,7.30
2019-02-21T23:19:04.176Z,7.20
2019-02-21T23:21:32.620Z,7.20
2019-02-21T23:24:01.184Z,7.20
2019-02-21T23:26:29.595Z,7.10
2019-02-21T23:28:58.093Z,7.10
2019-02-21T23:31:27.337Z,7.00
2019-02-21T23:33:57.409Z,6.90
2019-02-21T23:36:27.010Z,6.90
2019-02-21T23:38:55.428Z,6.80
2019-02-21T23:41:24.172Z,6.80
2019-02-21T23:43:52.858Z,6.80
2019-02-21T23:46:21.281Z,6.80
2019-02-21T23:48:49.820Z,6.80
2019-02-21T23:51:18.253Z,6.80
2019-02-21T23:53:46.666Z,6.80
2019-02-21T23:56:15.112Z,6.80
2019-02-21T23:58:43.508Z,6.80
